Time;durP1;ratioP1;P1;durP2;ratioP2;P2;SDS_P1;SDS_P2;PMS_P1;PMS_P2;Temp;Humidity;BMP_temperature;BMP_pressure;BME280_temperature;BME280_humidity;BME280_pressure;Samples;Min_cycle;Max_cycle;Signal;HPM_P1;HPM_P2
2023/03/15 00:00:09;;;;;;;8.00;7.20;;;6.00;1.00;;;;;;4919365;29;20551;-77
2023/03/15 00:02:37;;;;;;;7.20;7.00;;;5.90;23.40;;;;;;4923733;29;20475;-73
2023/03/15 00:05:06;;;;;;;7.50;7.30;;;5.90;13.90;;;;;;4915227;29;20449;-76
2023/03/15 00:07:34;;;;;;;7.70;7.40;;;5.90;98.70;;;;;;4917319;29;20445;-80
2023/03/15 00:10:03;;;;;;;7.93;7.73;;;5.90;51.80;;;;;;4918688;29;20461;-77
2023/03/15 00:12:33;;;;;;;8.37;7.80;;;6.00;50.50;;;;;;4911570;29;20469;-76
2023/03/15 00:15:02;;;;;;;8.03;7.63;;;5.90;57.20;;;;;;4911152;29;20583;-81
2023/03/15 00:17:33;;;;;;;8.20;7.90;;;5.90;9.40;;;;;;4919906;29;20475;-77
2023/03/15 00:20:03;;;;;;;8.27;7.87;;;5.90;17.50;;;;;;4918144;29;21317;-77
2023/03/15 00:22:31;;;;;;;9.17;8.73;;;5.90;1.00;;;;;;4920125;29;20495;-78
2023/03/15 00:24:59;;;;;;;8.50;8.20;;;5.90;1.00;;;;;;4919490;29;21279;-79
2023/03/15 00:27:27;;;;;;;8.20;7.77;;;5.90;1.00;;;;;;4916526;29;20459;-74
2023/03/15 00:29:55;;;;;;;8.23;7.93;;;5.90;1.00;;;;;;4923315;29;20523;-79
2023/03/15 00:32:24;;;;;;;8.73;8.10;;;5.90;1.00;;;;;;4918651;29;21277;-76
2023/03/15 00:34:53;;;;;;;8.87;8.33;;;5.80;1.00;;;;;;4919105;29;20485;-75
2023/03/15 00:37:24;;;;;;;7.93;7.53;;;5.90;1.00;;;;;;4901927;29;20461;-77
2023/03/15 00:39:54;;;;;;;8.10;7.70;;;5.90;1.00;;;;;;4915795;29;20225;-76
2023/03/15 00:42:26;;;;;;;7.80;7.30;;;5.80;1.00;;;;;;4918345;29;20317;-77
2023/03/15 00:44:55;;;;;;;8.40;7.90;;;5.90;1.00;;;;;;4915440;29;20485;-74
2023/03/15 00:47:24;;;;;;;8.27;7.87;;;5.90;1.00;;;;;;4923296;29;20505;-76
2023/03/15 00:49:53;;;;;;;7.97;7.57;;;5.90;1.00;;;;;;4919123;29;20457;-77
2023/03/15 00:52:21;;;;;;;7.30;7.00;;;5.70;1.00;;;;;;4920526;29;20474;-76
2023/03/15 00:54:53;;;;;;;7.70;7.40;;;5.70;1.00;;;;;;4916705;29;20593;-77
2023/03/15 00:57:21;;;;;;;8.33;7.77;;;5.70;1.00;;;;;;4925789;29;20880;-76
2023/03/15 00:59:52;;;;;;;8.00;7.60;;;5.80;1.00;;;;;;4923699;29;20975;-76
2023/03/15 01:02:20;;;;;;;8.20;7.70;;;5.70;1.00;;;;;;4924971;29;20515;-76
2023/03/15 01:04:51;;;;;;;6.90;6.60;;;5.70;1.00;;;;;;4922473;29;20998;-77
2023/03/15 01:07:19;;;;;;;7.80;7.50;;;5.70;1.00;;;;;;4922653;29;20206;-77
2023/03/15 01:09:47;;;;;;;7.80;7.40;;;5.70;1.00;;;;;;4921862;29;20608;-78
2023/03/15 01:12:15;;;;;;;8.20;7.63;;;5.70;1.00;;;;;;4923452;29;20476;-80
2023/03/15 01:14:43;;;;;;;7.90;7.50;;;5.70;1.00;;;;;;4922192;29;20415;-76
2023/03/15 01:17:11;;;;;;;7.80;7.40;;;5.70;1.00;;;;;;4917820;29;20457;-76
2023/03/15 01:19:39;;;;;;;8.45;7.95;;;5.70;1.00;;;;;;4920383;29;21023;-78
2023/03/15 01:22:09;;;;;;;7.63;7.22;;;5.60;1.00;;;;;;4916947;29;20904;-76
2023/03/15 01:24:37;;;;;;;8.30;7.70;;;5.60;1.00;;;;;;4917647;29;20320;-76
2023/03/15 01:27:05;;;;;;;7.60;7.30;;;5.60;1.00;;;;;;4904520;29;20618;-73
2023/03/15 01:29:33;;;;;;;7.70;7.30;;;5.50;1.00;;;;;;4915017;29;20468;-78
2023/03/15 01:32:01;;;;;;;7.17;6.97;;;5.40;1.00;;;;;;4918442;29;20485;-76
2023/03/15 01:34:30;;;;;;;6.97;6.70;;;5.40;1.00;;;;;;4916476;29;20477;-76
2023/03/15 01:36:58;;;;;;;7.25;6.65;;;5.40;1.00;;;;;;4918234;29;20543;-77
2023/03/15 01:39:27;;;;;;;7.33;7.03;;;5.40;1.00;;;;;;4916066;29;20208;-78
2023/03/15 01:41:55;;;;;;;7.00;6.70;;;5.30;1.00;;;;;;4919324;29;20520;-76
2023/03/15 01:44:23;;;;;;;7.23;6.83;;;5.30;1.00;;;;;;4916574;29;20485;-81
2023/03/15 01:46:52;;;;;;;6.77;6.57;;;5.30;1.00;;;;;;4919596;29;20469;-77
2023/03/15 01:49:24;;;;;;;7.65;7.15;;;5.30;1.00;;;;;;4911141;29;20466;-79
2023/03/15 01:51:55;;;;;;;7.00;6.50;;;5.30;1.00;;;;;;4925342;29;20236;-77
2023/03/15 01:54:29;;;;;;;6.68;6.40;;;5.20;1.00;;;;;;4924088;29;20210;-77
2023/03/15 01:57:01;;;;;;;6.50;6.20;;;5.20;1.00;;;;;;4918953;29;20692;-76
2023/03/15 01:59:33;;;;;;;7.10;6.75;;;5.20;1.00;;;;;;4912806;29;20425;-77
2023/03/15 02:02:01;;;;;;;6.65;6.25;;;5.20;1.00;;;;;;4920650;29;20323;-76
2023/03/15 02:04:34;;;;;;;7.17;6.67;;;5.20;1.00;;;;;;4916445;29;20257;-77
2023/03/15 02:07:04;;;;;;;7.30;7.00;;;5.20;1.00;;;;;;4920582;29;20523;-77
2023/03/15 02:09:42;;;;;;;6.80;6.50;;;5.20;1.00;;;;;;4922491;29;20200;-75
2023/03/15 02:12:10;;;;;;;6.30;6.00;;;5.10;1.00;;;;;;4920381;29;20225;-77
2023/03/15 02:14:40;;;;;;;6.83;6.40;;;5.10;1.00;;;;;;4916799;29;21003;-73
2023/03/15 02:17:08;;;;;;;6.65;6.32;;;5.10;1.00;;;;;;4919884;29;20939;-76
2023/03/15 02:19:48;;;;;;;6.55;6.13;;;5.00;1.00;;;;;;4921582;29;20837;-76
2023/03/15 02:22:27;;;;;;;6.50;6.30;;;5.10;1.00;;;;;;4920756;29;20228;-76
2023/03/15 02:25:03;;;;;;;6.18;6.05;;;5.10;1.00;;;;;;4923309;29;20233;-77
2023/03/15 02:27:34;;;;;;;6.60;6.00;;;5.10;1.00;;;;;;4919910;29;20211;-76
2023/03/15 02:30:04;;;;;;;6.40;6.10;;;5.10;1.00;;;;;;4919183;29;20589;-76
2023/03/15 02:32:32;;;;;;;6.20;6.00;;;5.10;1.00;;;;;;4918114;29;20226;-76
2023/03/15 02:35:00;;;;;;;6.28;5.75;;;5.10;1.00;;;;;;4917608;29;20228;-75
2023/03/15 02:37:28;;;;;;;6.10;5.90;;;5.00;1.00;;;;;;4916611;29;20231;-78
2023/03/15 02:39:56;;;;;;;8.43;6.40;;;5.00;1.00;;;;;;4916527;29;20580;-77
2023/03/15 02:42:25;;;;;;;6.77;6.33;;;5.00;1.00;;;;;;4923376;29;20300;-77
2023/03/15 02:44:55;;;;;;;7.60;7.10;;;5.00;1.00;;;;;;4915164;29;20521;-77
2023/03/15 02:47:28;;;;;;;5.90;5.78;;;5.00;1.00;;;;;;4916354;29;20205;-73
2023/03/15 02:49:56;;;;;;;6.33;5.77;;;5.10;1.00;;;;;;4916910;29;20691;-77
2023/03/15 02:52:25;;;;;;;6.50;6.13;;;5.10;99.90;;;;;;4917365;29;20480;-77
2023/03/15 02:54:53;;;;;;;6.07;5.67;;;5.20;99.90;;;;;;4920678;29;20276;-76
2023/03/15 02:57:21;;;;;;;5.82;5.53;;;5.20;99.90;;;;;;4922148;29;20462;-75
2023/03/15 02:59:50;;;;;;;5.90;5.60;;;5.20;99.90;;;;;;4918807;29;20603;-73
2023/03/15 03:02:19;;;;;;;6.18;5.82;;;5.20;99.90;;;;;;4918858;29;20480;-73
2023/03/15 03:04:48;;;;;;;5.73;5.57;;;5.20;99.90;;;;;;4917501;29;20216;-76
2023/03/15 03:07:16;;;;;;;5.90;5.60;;;5.10;99.90;;;;;;4918695;29;20452;-76
2023/03/15 03:09:44;;;;;;;6.43;6.03;;;5.20;99.90;;;;;;4920231;29;20198;-78
2023/03/15 03:12:12;;;;;;;5.87;5.37;;;5.20;99.90;;;;;;4904498;29;20920;-77
2023/03/15 03:14:42;;;;;;;6.18;5.65;;;5.20;99.90;;;;;;4918931;29;20476;-76
2023/03/15 03:17:10;;;;;;;6.18;5.97;;;5.20;99.90;;;;;;4919966;29;20209;-76
2023/03/15 03:19:39;;;;;;;6.32;5.97;;;5.10;99.90;;;;;;4916743;29;20267;-77
2023/03/15 03:22:07;;;;;;;6.13;5.82;;;5.20;99.90;;;;;;4914311;29;20225;-77
2023/03/15 03:24:36;;;;;;;6.82;6.30;;;5.00;99.90;;;;;;4913742;29;20292;-75
2023/03/15 03:27:04;;;;;;;6.17;5.73;;;5.00;99.90;;;;;;4916773;29;20268;-79
2023/03/15 03:29:32;;;;;;;6.70;6.30;;;4.90;99.90;;;;;;4911919;29;20834;-76
2023/03/15 03:32:00;;;;;;;6.28;5.78;;;5.00;99.90;;;;;;4917080;29;20295;-74
2023/03/15 03:34:28;;;;;;;5.97;5.57;;;4.90;99.90;;;;;;4918858;29;20274;-73
2023/03/15 03:36:58;;;;;;;6.32;5.90;;;4.90;99.90;;;;;;4914833;29;20252;-76
2023/03/15 03:39:26;;;;;;;5.68;5.43;;;5.00;99.90;;;;;;4915503;29;20220;-81
2023/03/15 03:41:54;;;;;;;6.00;5.60;;;5.00;99.90;;;;;;4917485;29;20230;-80
2023/03/15 03:44:22;;;;;;;7.00;6.47;;;4.80;99.90;;;;;;4921795;29;20268;-77
2023/03/15 03:46:50;;;;;;;7.15;5.70;;;4.80;99.90;;;;;;4908255;29;20206;-79
2023/03/15 03:49:18;;;;;;;5.97;5.68;;;4.80;99.90;;;;;;4919936;29;20212;-79
2023/03/15 03:51:46;;;;;;;6.00;5.80;;;4.80;99.90;;;;;;4922286;29;20310;-77
2023/03/15 03:54:16;;;;;;;5.88;5.63;;;4.70;99.90;;;;;;4923721;29;20202;-76
2023/03/15 03:56:44;;;;;;;6.20;5.80;;;4.70;99.90;;;;;;4922739;29;20320;-76
2023/03/15 03:59:12;;;;;;;5.70;5.40;;;4.70;99.90;;;;;;4919320;29;20280;-76
2023/03/15 04:01:41;;;;;;;5.75;5.45;;;4.60;99.90;;;;;;4917329;29;20276;-76
2023/03/15 04:04:12;;;;;;;5.70;5.50;;;4.60;99.90;;;;;;4917818;29;20635;-76
2023/03/15 04:06:44;;;;;;;5.60;5.40;;;4.60;99.90;;;;;;4916796;29;20560;-75
2023/03/15 04:09:13;;;;;;;5.60;5.30;;;4.60;99.90;;;;;;4917761;29;20263;-73
2023/03/15 04:11:43;;;;;;;5.65;5.35;;;4.70;99.90;;;;;;4916431;29;20281;-78
2023/03/15 04:14:13;;;;;;;6.30;5.70;;;4.70;99.90;;;;;;4920968;29;20245;-76
2023/03/15 04:16:41;;;;;;;6.05;5.80;;;4.60;99.90;;;;;;4919925;29;20279;-77
2023/03/15 04:19:11;;;;;;;6.72;6.32;;;4.60;99.90;;;;;;4923104;29;20212;-75
2023/03/15 04:21:46;;;;;;;6.60;6.20;;;4.60;99.90;;;;;;4920484;29;20927;-79
2023/03/15 04:24:14;;;;;;;9.05;5.90;;;4.50;99.90;;;;;;4921694;29;20577;-78
2023/03/15 04:26:44;;;;;;;6.13;5.65;;;4.40;99.90;;;;;;4917734;29;20758;-78
2023/03/15 04:29:14;;;;;;;6.53;5.80;;;4.30;99.90;;;;;;4918639;29;20211;-78
2023/03/15 04:31:42;;;;;;;6.20;5.80;;;4.30;99.90;;;;;;4909443;29;21164;-80
2023/03/15 04:34:10;;;;;;;6.85;6.45;;;4.30;99.90;;;;;;4919320;29;20194;-75
2023/03/15 04:36:38;;;;;;;6.80;6.25;;;4.30;99.90;;;;;;4921629;29;20220;-79
2023/03/15 04:39:06;;;;;;;5.72;5.50;;;4.30;99.90;;;;;;4922402;29;20205;-77
2023/03/15 04:41:34;;;;;;;6.90;6.30;;;4.30;99.90;;;;;;4919225;29;20313;-79
2023/03/15 04:44:04;;;;;;;7.20;6.60;;;4.20;99.90;;;;;;4919736;29;20691;-77
2023/03/15 04:46:33;;;;;;;6.32;5.97;;;4.30;99.90;;;;;;4918043;29;20205;-79
2023/03/15 04:49:02;;;;;;;6.60;5.97;;;4.40;99.90;;;;;;4919790;29;20208;-77
2023/03/15 04:51:30;;;;;;;5.93;5.45;;;4.40;99.90;;;;;;4920003;29;20221;-75
2023/03/15 04:53:58;;;;;;;6.20;5.80;;;4.40;99.90;;;;;;4921826;29;20559;-77
2023/03/15 04:56:27;;;;;;;5.65;5.43;;;4.60;99.90;;;;;;4925936;29;20875;-77
2023/03/15 04:58:55;;;;;;;5.70;5.55;;;4.60;99.90;;;;;;4918775;29;20205;-79
2023/03/15 05:01:28;;;;;;;6.63;6.20;;;4.60;99.90;;;;;;4915708;29;20747;-80
2023/03/15 05:03:56;;;;;;;7.90;6.03;;;4.60;99.90;;;;;;4914083;29;20197;-78
2023/03/15 05:06:25;;;;;;;7.10;6.53;;;4.60;99.90;;;;;;4924576;29;20717;-77
2023/03/15 05:08:53;;;;;;;6.65;5.55;;;4.50;99.90;;;;;;4921467;29;20292;-80
2023/03/15 05:11:22;;;;;;;6.40;5.95;;;4.60;99.90;;;;;;4927293;29;20221;-78
2023/03/15 05:13:50;;;;;;;6.57;6.07;;;4.60;99.90;;;;;;4929406;29;20228;-75
2023/03/15 05:16:18;;;;;;;5.70;5.40;;;4.60;99.90;;;;;;4922586;29;20844;-80
2023/03/15 05:18:47;;;;;;;7.20;6.70;;;4.50;99.90;;;;;;4919094;29;20236;-74
2023/03/15 05:21:16;;;;;;;6.32;5.97;;;4.40;99.90;;;;;;4913626;29;20332;-78
2023/03/15 05:23:44;;;;;;;6.22;6.03;;;4.50;99.90;;;;;;4918716;29;20670;-77
2023/03/15 05:26:13;;;;;;;9.30;7.05;;;4.50;99.90;;;;;;4915585;29;20226;-78
2023/03/15 05:28:44;;;;;;;6.93;6.43;;;4.40;99.90;;;;;;4916764;29;20205;-77
2023/03/15 05:31:12;;;;;;;6.40;6.10;;;4.50;99.90;;;;;;4910577;29;20249;-77
2023/03/15 05:33:45;;;;;;;6.10;5.80;;;4.60;99.90;;;;;;4917955;29;20210;-79
2023/03/15 05:36:16;;;;;;;7.30;6.57;;;4.60;99.90;;;;;;4914273;29;20229;-78
2023/03/15 05:38:44;;;;;;;6.90;6.30;;;4.60;99.90;;;;;;4916525;29;20197;-78
2023/03/15 05:41:16;;;;;;;6.60;6.10;;;4.50;99.90;;;;;;4914960;29;20484;-77
2023/03/15 05:43:45;;;;;;;6.75;6.30;;;4.60;99.90;;;;;;4920038;29;20315;-79
2023/03/15 05:46:13;;;;;;;6.40;5.90;;;4.50;99.90;;;;;;4918071;29;20202;-76
2023/03/15 05:48:41;;;;;;;6.70;6.20;;;4.50;99.90;;;;;;4915678;29;20544;-76
2023/03/15 05:51:10;;;;;;;7.55;7.05;;;4.60;99.90;;;;;;4921970;29;20910;-75
2023/03/15 05:53:39;;;;;;;6.43;6.13;;;4.40;99.90;;;;;;4919326;29;20216;-78
2023/03/15 05:56:08;;;;;;;6.30;5.90;;;4.20;99.90;;;;;;4916408;29;20229;-77
2023/03/15 05:58:37;;;;;;;7.00;6.45;;;4.10;99.90;;;;;;4919775;29;20232;-77
2023/03/15 06:01:05;;;;;;;6.60;6.15;;;4.10;99.90;;;;;;4917905;29;20233;-79
2023/03/15 06:03:33;;;;;;;7.75;7.15;;;4.10;99.90;;;;;;4910059;29;20215;-77
2023/03/15 06:06:02;;;;;;;8.25;7.65;;;4.10;99.90;;;;;;4917509;29;20747;-76
2023/03/15 06:08:30;;;;;;;7.00;6.60;;;4.20;99.90;;;;;;4913463;29;20209;-78
2023/03/15 06:10:59;;;;;;;7.30;6.90;;;4.30;99.90;;;;;;4919962;29;20741;-76
2023/03/15 06:13:27;;;;;;;8.00;7.43;;;4.30;99.90;;;;;;4909357;29;20208;-76
2023/03/15 06:15:55;;;;;;;7.35;6.70;;;4.30;99.90;;;;;;4913923;29;20212;-75
2023/03/15 06:18:24;;;;;;;6.90;6.60;;;4.40;99.90;;;;;;4910636;29;20244;-80
2023/03/15 06:20:52;;;;;;;7.40;6.95;;;4.30;99.90;;;;;;4915170;29;20228;-78
2023/03/15 06:23:20;;;;;;;7.10;6.57;;;4.20;99.90;;;;;;4919314;29;20623;-77
2023/03/15 06:25:48;;;;;;;7.35;6.47;;;4.30;99.90;;;;;;4913929;29;20213;-75
2023/03/15 06:28:17;;;;;;;7.28;6.68;;;4.40;99.90;;;;;;4916200;29;20229;-78
2023/03/15 06:30:45;;;;;;;8.75;7.93;;;4.40;99.90;;;;;;4913162;29;20208;-77
2023/03/15 06:33:14;;;;;;;7.03;6.35;;;4.40;99.90;;;;;;4913249;29;20218;-77
2023/03/15 06:35:42;;;;;;;6.90;6.47;;;4.50;99.90;;;;;;4912712;29;20229;-77
2023/03/15 06:38:12;;;;;;;7.57;7.07;;;4.70;99.90;;;;;;4914970;29;20229;-79
2023/03/15 06:40:40;;;;;;;7.68;7.22;;;4.90;99.90;;;;;;4914073;29;20205;-78
2023/03/15 06:43:12;;;;;;;7.90;7.43;;;5.00;99.90;;;;;;4913477;29;21424;-78
2023/03/15 06:45:42;;;;;;;7.47;6.95;;;5.00;99.90;;;;;;4917565;29;20206;-75
2023/03/15 06:48:10;;;;;;;7.60;7.00;;;5.10;99.90;;;;;;4912760;29;20197;-80
2023/03/15 06:50:38;;;;;;;8.90;6.90;;;5.20;99.90;;;;;;4914511;29;20789;-79
2023/03/15 06:53:14;;;;;;;8.55;7.72;;;5.30;99.90;;;;;;4914853;29;20209;-77
2023/03/15 06:55:43;;;;;;;7.57;6.38;;;5.20;99.90;;;;;;4920439;29;20201;-80
2023/03/15 06:58:11;;;;;;;6.15;5.85;;;5.30;99.90;;;;;;4920161;29;20687;-76
2023/03/15 07:00:39;;;;;;;6.25;5.90;;;5.30;99.90;;;;;;4917713;29;20670;-77
2023/03/15 07:03:09;;;;;;;7.00;6.57;;;5.40;99.90;;;;;;4921007;29;20340;-78
2023/03/15 07:05:37;;;;;;;7.63;6.85;;;5.30;99.90;;;;;;4920332;29;20730;-79
2023/03/15 07:08:06;;;;;;;7.33;6.63;;;5.50;99.90;;;;;;4919086;29;20198;-77
2023/03/15 07:10:35;;;;;;;6.85;6.40;;;5.50;99.90;;;;;;4919614;29;20470;-77
2023/03/15 07:13:05;;;;;;;6.78;6.35;;;5.50;99.90;;;;;;4919512;29;20244;-78
2023/03/15 07:15:35;;;;;;;6.88;6.40;;;5.50;99.90;;;;;;4916953;29;20358;-78
2023/03/15 07:18:03;;;;;;;7.40;6.90;;;5.60;99.90;;;;;;4919060;29;20221;-79
2023/03/15 07:20:33;;;;;;;7.40;6.90;;;5.60;99.90;;;;;;4912751;29;22674;-78
2023/03/15 07:23:04;;;;;;;7.27;6.93;;;5.70;99.90;;;;;;4925036;28;20228;-80
2023/03/15 07:25:32;;;;;;;7.90;7.30;;;5.80;99.90;;;;;;4919273;29;20465;-78
2023/03/15 07:28:19;;;;;;;6.80;6.50;;;5.70;99.90;;;;;;4919683;29;20321;-77
2023/03/15 07:30:56;;;;;;;6.70;6.43;;;5.80;99.90;;;;;;4919867;29;20225;-78
2023/03/15 07:33:25;;;;;;;8.75;8.38;;;5.80;99.90;;;;;;4921282;29;20219;-76
2023/03/15 07:35:55;;;;;;;7.37;6.90;;;5.80;99.90;;;;;;4912046;29;20205;-77
2023/03/15 07:38:25;;;;;;;7.70;7.27;;;6.00;99.90;;;;;;4918477;29;20478;-77
2023/03/15 07:40:53;;;;;;;7.13;6.72;;;6.00;99.90;;;;;;4920630;29;20470;-77
2023/03/15 07:43:22;;;;;;;10.10;7.70;;;6.10;99.90;;;;;;4920841;29;20232;-78
2023/03/15 07:45:50;;;;;;;7.10;6.70;;;6.10;99.90;;;;;;4921185;29;20456;-77
2023/03/15 07:48:18;;;;;;;7.97;7.27;;;6.20;99.90;;;;;;4922369;29;21068;-76
2023/03/15 07:50:47;;;;;;;7.70;7.25;;;6.30;99.90;;;;;;4924057;29;20456;-78
2023/03/15 07:53:17;;;;;;;7.97;7.37;;;6.30;99.90;;;;;;4923570;29;20209;-77
2023/03/15 07:55:47;;;;;;;7.77;7.30;;;6.40;99.90;;;;;;4922348;29;20520;-78
2023/03/15 07:58:15;;;;;;;7.43;7.07;;;6.60;99.90;;;;;;4925805;29;20484;-77
2023/03/15 08:00:47;;;;;;;8.13;7.47;;;6.80;99.90;;;;;;4923135;29;20466;-77
2023/03/15 08:03:15;;;;;;;7.47;7.13;;;7.00;99.90;;;;;;4923700;29;20893;-78
2023/03/15 08:05:43;;;;;;;7.77;7.27;;;7.30;99.90;;;;;;4921256;29;20490;-80
2023/03/15 08:08:11;;;;;;;7.10;6.80;;;7.60;99.90;;;;;;4920772;29;20462;-80
2023/03/15 08:10:42;;;;;;;7.83;7.43;;;7.90;99.90;;;;;;4920216;29;20465;-79
2023/03/15 08:13:10;;;;;;;7.70;7.10;;;8.20;99.90;;;;;;4918336;29;21003;-78
2023/03/15 08:15:38;;;;;;;7.10;6.80;;;8.80;99.90;;;;;;4919430;29;20553;-77
2023/03/15 08:18:06;;;;;;;8.33;7.57;;;9.30;99.90;;;;;;4920977;29;20477;-77
2023/03/15 08:20:34;;;;;;;7.20;6.90;;;9.50;99.90;;;;;;4917922;29;20455;-77
2023/03/15 08:23:02;;;;;;;7.53;7.03;;;9.70;99.90;;;;;;4921744;29;20480;-78
2023/03/15 08:25:31;;;;;;;7.00;6.70;;;10.00;99.90;;;;;;4921416;29;20484;-76
2023/03/15 08:28:00;;;;;;;7.83;7.47;;;10.30;99.90;;;;;;4923092;29;20486;-79
2023/03/15 08:30:29;;;;;;;7.10;6.70;;;10.40;99.90;;;;;;4922605;29;20464;-78
2023/03/15 08:32:57;;;;;;;7.90;7.50;;;10.70;99.90;;;;;;4920664;29;20536;-78
2023/03/15 08:35:25;;;;;;;7.27;6.97;;;10.90;99.90;;;;;;4918761;29;20472;-79
2023/03/15 08:37:53;;;;;;;7.00;6.53;;;11.10;99.90;;;;;;4918798;29;20479;-76
2023/03/15 08:40:24;;;;;;;7.17;6.57;;;11.30;99.90;;;;;;4918674;29;20538;-78
2023/03/15 08:42:53;;;;;;;6.60;6.30;;;11.50;99.90;;;;;;4913275;29;20492;-76
2023/03/15 08:45:24;;;;;;;7.00;6.70;;;11.50;99.90;;;;;;4918615;29;20461;-79
2023/03/15 08:47:55;;;;;;;6.73;6.47;;;11.70;99.90;;;;;;4917620;29;20457;-78
2023/03/15 08:50:25;;;;;;;6.77;6.27;;;11.50;99.90;;;;;;4917796;29;20495;-77
2023/03/15 08:52:54;;;;;;;6.87;6.47;;;11.60;99.90;;;;;;4917289;29;20484;-78
2023/03/15 08:55:22;;;;;;;6.13;5.73;;;11.50;99.90;;;;;;4921702;29;21035;-78
2023/03/15 08:57:50;;;;;;;6.37;5.87;;;11.90;99.90;;;;;;4919224;29;20464;-75
2023/03/15 09:00:21;;;;;;;6.43;6.23;;;12.40;99.90;;;;;;4920639;29;20469;-78
2023/03/15 09:02:52;;;;;;;6.97;6.60;;;12.20;98.70;;;;;;4922444;29;20477;-77
2023/03/15 09:05:20;;;;;;;7.07;6.77;;;11.10;92.80;;;;;;4918636;29;20458;-78
2023/03/15 09:07:49;;;;;;;6.30;6.10;;;11.40;94.80;;;;;;4922402;29;20873;-77
2023/03/15 09:10:17;;;;;;;6.70;6.10;;;12.30;98.50;;;;;;4919149;29;20453;-76
2023/03/15 09:12:47;;;;;;;5.93;5.63;;;12.60;98.90;;;;;;4923850;29;20481;-77
2023/03/15 09:15:16;;;;;;;7.13;6.70;;;12.40;97.00;;;;;;4905228;29;21082;-78
2023/03/15 09:17:44;;;;;;;7.37;7.07;;;12.00;95.80;;;;;;4920021;29;21377;-76
2023/03/15 09:20:15;;;;;;;7.20;6.77;;;11.50;91.70;;;;;;4909518;29;20490;-76
2023/03/15 09:22:44;;;;;;;6.30;6.00;;;11.00;88.20;;;;;;4918568;29;20554;-79
2023/03/15 09:25:12;;;;;;;6.97;6.30;;;10.50;86.00;;;;;;4914762;29;20990;-77
2023/03/15 09:27:40;;;;;;;5.90;5.70;;;10.30;86.20;;;;;;4919757;29;20561;-77
2023/03/15 09:30:10;;;;;;;5.87;5.57;;;10.40;85.70;;;;;;4917443;29;21057;-77
2023/03/15 09:32:38;;;;;;;6.83;6.33;;;10.40;88.80;;;;;;4916202;29;20469;-77
2023/03/15 09:35:08;;;;;;;6.00;5.80;;;10.20;86.80;;;;;;4914444;29;20827;-78
2023/03/15 09:37:38;;;;;;;5.90;5.70;;;9.90;85.60;;;;;;4916472;29;20462;-75
2023/03/15 09:40:08;;;;;;;6.07;5.60;;;9.60;79.00;;;;;;4914075;29;20485;-77
2023/03/15 09:42:49;;;;;;;5.80;5.50;;;9.50;75.50;;;;;;4917215;29;20479;-80
2023/03/15 09:45:27;;;;;;;5.20;5.00;;;9.30;74.80;;;;;;4915610;29;20445;-75
2023/03/15 09:48:04;;;;;;;5.60;5.17;;;9.00;69.90;;;;;;4917031;29;20475;-73
2023/03/15 09:50:37;;;;;;;5.80;5.60;;;8.90;62.80;;;;;;4916921;29;20457;-73
2023/03/15 09:53:11;;;;;;;6.00;5.80;;;8.60;65.60;;;;;;4900655;29;20560;-77
2023/03/15 09:55:42;;;;;;;5.30;5.00;;;8.60;65.60;;;;;;4920326;29;21220;-78
2023/03/15 09:58:15;;;;;;;5.40;5.13;;;8.70;67.40;;;;;;4921939;29;20480;-80
2023/03/15 10:00:46;;;;;;;5.50;5.20;;;8.80;71.30;;;;;;4922386;29;20562;-79
2023/03/15 10:03:20;;;;;;;5.33;5.07;;;8.90;72.10;;;;;;4923569;29;20578;-77
2023/03/15 10:05:55;;;;;;;5.10;4.90;;;9.20;75.20;;;;;;4923414;29;21517;-76
2023/03/15 10:08:25;;;;;;;5.73;4.93;;;9.20;76.40;;;;;;4923370;29;20450;-78
2023/03/15 10:10:56;;;;;;;5.20;4.80;;;9.50;82.00;;;;;;4921720;29;20529;-79
2023/03/15 10:13:50;;;;;;;7.00;4.90;;;10.20;88.90;;;;;;4920204;29;20469;-78
2023/03/15 10:16:34;;;;;;;4.87;4.40;;;10.50;84.10;;;;;;4920053;29;20535;-79
2023/03/15 10:19:09;;;;;;;5.03;4.70;;;10.60;80.40;;;;;;4919983;29;20542;-79
2023/03/15 10:21:43;;;;;;;4.30;4.10;;;10.60;71.10;;;;;;4920835;29;20488;-77
2023/03/15 10:24:19;;;;;;;4.83;4.60;;;10.40;68.00;;;;;;4916342;29;20515;-76
2023/03/15 10:26:50;;;;;;;5.00;4.50;;;10.50;70.10;;;;;;4916510;29;20473;-77
2023/03/15 10:29:22;;;;;;;4.60;4.50;;;10.20;65.30;;;;;;4916088;29;20974;-78
2023/03/15 10:31:51;;;;;;;4.90;4.70;;;10.50;67.30;;;;;;4917157;29;20582;-78
2023/03/15 10:34:20;;;;;;;4.90;4.70;;;11.00;78.30;;;;;;4916062;29;20475;-78
2023/03/15 10:36:53;;;;;;;4.27;4.17;;;12.90;95.20;;;;;;4918483;29;20550;-78
2023/03/15 10:39:24;;;;;;;5.00;4.70;;;14.70;99.90;;;;;;4915260;29;20546;-78
2023/03/15 10:41:52;;;;;;;4.77;4.40;;;16.10;99.90;;;;;;4912960;29;22559;-78
2023/03/15 10:44:24;;;;;;;4.83;4.43;;;15.00;93.40;;;;;;4916383;29;20459;-77
2023/03/15 10:47:05;;;;;;;4.43;4.17;;;15.80;96.70;;;;;;4913884;29;20529;-76
2023/03/15 10:49:50;;;;;;;4.80;4.40;;;14.70;83.40;;;;;;4915123;29;20456;-79
2023/03/15 10:52:37;;;;;;;4.10;4.00;;;14.20;75.60;;;;;;4915880;29;20492;-78
2023/03/15 10:55:12;;;;;;;4.77;4.50;;;13.50;83.90;;;;;;4917441;29;21434;-78
2023/03/15 10:57:50;;;;;;;11.80;10.63;;;14.20;78.40;;;;;;4923147;29;20455;-77
2023/03/15 11:00:28;;;;;;;3.57;3.47;;;18.10;99.90;;;;;;4921592;29;20493;-75
2023/03/15 11:03:03;;;;;;;3.90;3.70;;;18.50;99.90;;;;;;4919544;29;21012;-78
2023/03/15 11:05:36;;;;;;;3.40;3.30;;;16.70;85.20;;;;;;4920304;29;20465;-78
2023/03/15 11:08:10;;;;;;;3.50;3.40;;;14.90;59.10;;;;;;4917395;29;20463;-77
2023/03/15 11:10:40;;;;;;;3.90;3.70;;;13.60;45.60;;;;;;4919646;29;20451;-78
2023/03/15 11:13:13;;;;;;;3.73;3.57;;;13.00;39.50;;;;;;4921946;29;20481;-78
2023/03/15 11:15:53;;;;;;;3.70;3.50;;;12.10;32.20;;;;;;4920403;29;20547;-78
2023/03/15 11:18:27;;;;;;;3.40;3.30;;;11.70;29.00;;;;;;4919671;29;20471;-76
2023/03/15 11:20:57;;;;;;;3.60;3.50;;;11.40;28.30;;;;;;4919967;29;20499;-76
2023/03/15 11:23:28;;;;;;;3.77;3.57;;;11.00;25.70;;;;;;4922266;29;20454;-80
2023/03/15 11:25:58;;;;;;;3.40;3.30;;;10.70;23.30;;;;;;4920544;29;20468;-79
2023/03/15 11:28:30;;;;;;;4.63;4.23;;;10.40;21.20;;;;;;4920634;29;20512;-78
2023/03/15 11:30:59;;;;;;;3.43;3.23;;;10.40;22.00;;;;;;4922650;29;20449;-76
2023/03/15 11:33:37;;;;;;;4.03;3.73;;;10.30;22.70;;;;;;4920056;29;20503;-77
2023/03/15 11:36:11;;;;;;;3.20;3.10;;;10.20;22.20;;;;;;4918261;29;20470;-76
2023/03/15 11:38:42;;;;;;;3.50;3.27;;;10.20;22.20;;;;;;4920304;29;20519;-75
2023/03/15 11:41:27;;;;;;;3.23;3.03;;;10.10;21.20;;;;;;4921134;29;20567;-74
2023/03/15 11:44:06;;;;;;;3.33;3.07;;;10.10;21.40;;;;;;4919128;29;20457;-76
2023/03/15 11:46:40;;;;;;;3.10;2.90;;;10.10;20.30;;;;;;4921334;29;20565;-77
2023/03/15 11:49:15;;;;;;;3.40;3.20;;;10.00;20.60;;;;;;4916441;29;20473;-77
2023/03/15 11:51:43;;;;;;;3.23;3.03;;;9.90;20.40;;;;;;4918640;29;20469;-77
2023/03/15 11:54:14;;;;;;;6.50;3.63;;;9.90;20.40;;;;;;4922051;29;20457;-77
2023/03/15 11:56:50;;;;;;;3.30;2.80;;;9.90;21.30;;;;;;4917273;29;20491;-76
2023/03/15 11:59:24;;;;;;;3.00;2.90;;;9.80;21.30;;;;;;4920016;29;20483;-77
2023/03/15 12:01:58;;;;;;;4.40;4.20;;;9.80;21.10;;;;;;4919672;29;20488;-76
2023/03/15 12:04:41;;;;;;;4.30;4.10;;;9.80;20.70;;;;;;4918039;29;20468;-77
2023/03/15 12:07:31;;;;;;;4.40;4.20;;;9.90;21.00;;;;;;4919402;29;20451;-75
2023/03/15 12:10:34;;;;;;;4.70;4.50;;;10.00;22.00;;;;;;4915049;29;20462;-75
2023/03/15 12:13:18;;;;;;;4.33;4.20;;;10.10;26.50;;;;;;4913740;29;20621;-76
2023/03/15 12:15:48;;;;;;;4.63;4.27;;;10.10;24.50;;;;;;4916130;29;20560;-77
2023/03/15 12:18:21;;;;;;;3.80;3.70;;;10.10;24.50;;;;;;4921851;29;20483;-76
2023/03/15 12:21:10;;;;;;;3.97;3.80;;;10.10;22.90;;;;;;4916414;29;20516;-75
2023/03/15 12:23:42;;;;;;;11.00;4.97;;;10.00;23.10;;;;;;4924232;29;20462;-77
2023/03/15 12:26:24;;;;;;;3.47;3.37;;;10.10;23.40;;;;;;4916714;29;21396;-77
2023/03/15 12:29:05;;;;;;;3.80;3.60;;;10.10;24.10;;;;;;4915934;29;21052;-79
2023/03/15 12:31:55;;;;;;;3.57;3.37;;;10.10;24.50;;;;;;4913324;29;21031;-76
2023/03/15 12:34:28;;;;;;;3.47;3.37;;;10.10;24.50;;;;;;4915295;29;20841;-79
2023/03/15 12:36:59;;;;;;;4.40;3.83;;;10.20;38.90;;;;;;4918675;29;20559;-76
2023/03/15 12:39:40;;;;;;;4.30;4.10;;;10.20;25.80;;;;;;4917905;29;21007;-80
2023/03/15 12:42:30;;;;;;;5.53;3.83;;;10.40;27.80;;;;;;4916745;29;20484;-75
2023/03/15 12:45:44;;;;;;;3.20;3.10;;;10.50;27.10;;;;;;4901643;29;20472;-80
2023/03/15 12:48:21;;;;;;;3.67;3.40;;;10.50;26.70;;;;;;4893751;29;20462;-75
2023/03/15 12:50:56;;;;;;;3.40;3.10;;;10.60;27.50;;;;;;4914765;29;22265;-79
2023/03/15 12:53:35;;;;;;;3.50;3.40;;;10.70;28.50;;;;;;4916592;29;20499;-79
2023/03/15 12:56:31;;;;;;;3.13;3.03;;;10.50;26.20;;;;;;4922164;29;20827;-76
2023/03/15 12:59:10;;;;;;;4.37;3.60;;;10.40;25.20;;;;;;4918050;29;20469;-78
2023/03/15 13:01:38;;;;;;;3.67;3.47;;;10.30;24.20;;;;;;4921819;29;20849;-76
2023/03/15 13:04:10;;;;;;;3.87;3.67;;;10.10;23.00;;;;;;4920317;29;20452;-74
2023/03/15 13:06:50;;;;;;;3.63;3.33;;;10.20;25.30;;;;;;4922898;29;20449;-77
2023/03/15 13:09:32;;;;;;;3.70;3.50;;;10.10;25.90;;;;;;4920210;29;20953;-77
2023/03/15 13:12:07;;;;;;;3.60;3.40;;;10.00;39.10;;;;;;4921670;29;20313;-77
2023/03/15 13:14:41;;;;;;;3.77;3.57;;;10.00;26.70;;;;;;4921858;29;20476;-74